sensor_id;sensor_type;location;lat;lon;timestamp;temperature;humidity
15483;DHT22;7843;50.330;7.312;2023-02-26T00:01:17;-0.40;91.70
15483;DHT22;7843;50.330;7.312;2023-02-26T00:03:48;-0.40;91.90
15483;DHT22;7843;50.330;7.312;2023-02-26T00:06:15;-0.40;91.50
15483;DHT22;7843;50.330;7.312;2023-02-26T00:08:42;-0.40;91.30
15483;DHT22;7843;50.330;7.312;2023-02-26T00:11:10;-0.40;91.70
15483;DHT22;7843;50.330;7.312;2023-02-26T00:13:39;-0.40;92.00
15483;DHT22;7843;50.330;7.312;2023-02-26T00:16:24;-0.30;92.00
15483;DHT22;7843;50.330;7.312;2023-02-26T00:18:52;-0.30;91.80
15483;DHT22;7843;50.330;7.312;2023-02-26T00:21:21;-0.30;91.90
15483;DHT22;7843;50.330;7.312;2023-02-26T00:23:48;-0.30;92.00
15483;DHT22;7843;50.330;7.312;2023-02-26T00:26:15;-0.30;92.20
15483;DHT22;7843;50.330;7.312;2023-02-26T00:28:42;-0.30;92.10
15483;DHT22;7843;50.330;7.312;2023-02-26T00:31:10;-0.20;92.10
15483;DHT22;7843;50.330;7.312;2023-02-26T00:33:38;-0.20;92.00
15483;DHT22;7843;50.330;7.312;2023-02-26T00:39:16;-0.20;92.30
15483;DHT22;7843;50.330;7.312;2023-02-26T00:41:47;-0.20;92.30
15483;DHT22;7843;50.330;7.312;2023-02-26T00:44:14;-0.20;91.90
15483;DHT22;7843;50.330;7.312;2023-02-26T00:46:53;-0.20;92.20
15483;DHT22;7843;50.330;7.312;2023-02-26T00:49:42;-0.20;92.10
15483;DHT22;7843;50.330;7.312;2023-02-26T00:52:15;-0.10;92.20
15483;DHT22;7843;50.330;7.312;2023-02-26T00:54:45;-0.10;92.40
15483;DHT22;7843;50.330;7.312;2023-02-26T00:57:12;-0.10;92.50
15483;DHT22;7843;50.330;7.312;2023-02-26T00:59:38;-0.10;92.20
15483;DHT22;7843;50.330;7.312;2023-02-26T01:02:05;0.00;92.50
15483;DHT22;7843;50.330;7.312;2023-02-26T01:04:32;0.00;92.80
15483;DHT22;7843;50.330;7.312;2023-02-26T01:06:59;0.10;92.30
15483;DHT22;7843;50.330;7.312;2023-02-26T01:09:28;0.10;92.20
15483;DHT22;7843;50.330;7.312;2023-02-26T01:11:58;0.10;92.40
15483;DHT22;7843;50.330;7.312;2023-02-26T01:14:27;0.10;92.50
15483;DHT22;7843;50.330;7.312;2023-02-26T01:17:20;0.10;92.80
15483;DHT22;7843;50.330;7.312;2023-02-26T01:19:56;0.10;92.50
15483;DHT22;7843;50.330;7.312;2023-02-26T01:22:39;0.00;91.90
15483;DHT22;7843;50.330;7.312;2023-02-26T01:25:15;-0.10;92.30
15483;DHT22;7843;50.330;7.312;2023-02-26T01:27:43;-0.20;92.70
15483;DHT22;7843;50.330;7.312;2023-02-26T01:30:10;-0.30;93.10
15483;DHT22;7843;50.330;7.312;2023-02-26T01:32:45;-0.40;93.70
15483;DHT22;7843;50.330;7.312;2023-02-26T01:35:49;-0.50;94.10
15483;DHT22;7843;50.330;7.312;2023-02-26T01:41:42;-0.60;94.90
15483;DHT22;7843;50.330;7.312;2023-02-26T01:46:45;-0.70;95.10
15483;DHT22;7843;50.330;7.312;2023-02-26T01:49:16;-0.70;95.00
15483;DHT22;7843;50.330;7.312;2023-02-26T01:51:54;-0.70;95.30
15483;DHT22;7843;50.330;7.312;2023-02-26T01:54:44;-0.70;95.40
15483;DHT22;7843;50.330;7.312;2023-02-26T01:57:12;-0.70;95.40
15483;DHT22;7843;50.330;7.312;2023-02-26T01:59:42;-0.80;95.70
15483;DHT22;7843;50.330;7.312;2023-02-26T02:02:11;-0.80;95.90
15483;DHT22;7843;50.330;7.312;2023-02-26T02:04:39;-0.70;96.10
15483;DHT22;7843;50.330;7.312;2023-02-26T02:07:07;-0.80;96.00
15483;DHT22;7843;50.330;7.312;2023-02-26T02:09:34;-0.80;96.20
15483;DHT22;7843;50.330;7.312;2023-02-26T02:12:23;-0.90;96.40
15483;DHT22;7843;50.330;7.312;2023-02-26T02:15:09;-0.90;96.60
15483;DHT22;7843;50.330;7.312;2023-02-26T02:28:33;-1.10;97.40
15483;DHT22;7843;50.330;7.312;2023-02-26T02:31:14;-1.20;97.60
15483;DHT22;7843;50.330;7.312;2023-02-26T02:33:48;-1.20;97.90
15483;DHT22;7843;50.330;7.312;2023-02-26T02:39:12;-1.20;98.10
15483;DHT22;7843;50.330;7.312;2023-02-26T02:41:53;-1.20;98.30
15483;DHT22;7843;50.330;7.312;2023-02-26T02:44:25;-1.20;98.20
15483;DHT22;7843;50.330;7.312;2023-02-26T02:46:53;-1.20;98.30
15483;DHT22;7843;50.330;7.312;2023-02-26T02:52:12;-1.30;98.40
15483;DHT22;7843;50.330;7.312;2023-02-26T02:54:45;-1.30;98.60
15483;DHT22;7843;50.330;7.312;2023-02-26T02:57:20;-1.30;98.70
15483;DHT22;7843;50.330;7.312;2023-02-26T02:59:51;-1.40;98.80
15483;DHT22;7843;50.330;7.312;2023-02-26T03:02:58;-1.40;99.10
15483;DHT22;7843;50.330;7.312;2023-02-26T03:05:26;-1.40;99.10
15483;DHT22;7843;50.330;7.312;2023-02-26T03:07:57;-1.40;99.10
15483;DHT22;7843;50.330;7.312;2023-02-26T03:10:25;-1.40;98.90
15483;DHT22;7843;50.330;7.312;2023-02-26T03:12:52;-1.50;98.90
15483;DHT22;7843;50.330;7.312;2023-02-26T03:15:27;-1.60;99.10
15483;DHT22;7843;50.330;7.312;2023-02-26T03:18:19;-1.60;99.10
15483;DHT22;7843;50.330;7.312;2023-02-26T03:23:42;-1.70;99.40
15483;DHT22;7843;50.330;7.312;2023-02-26T03:26:18;-1.70;99.40
15483;DHT22;7843;50.330;7.312;2023-02-26T03:29:05;-1.80;99.50
15483;DHT22;7843;50.330;7.312;2023-02-26T03:34:23;-1.90;99.70
15483;DHT22;7843;50.330;7.312;2023-02-26T03:37:04;-2.00;99.80
15483;DHT22;7843;50.330;7.312;2023-02-26T03:39:38;-2.00;99.90
15483;DHT22;7843;50.330;7.312;2023-02-26T03:42:39;-2.00;99.90
15483;DHT22;7843;50.330;7.312;2023-02-26T03:45:10;-2.00;99.90
15483;DHT22;7843;50.330;7.312;2023-02-26T03:47:40;-1.90;99.90
15483;DHT22;7843;50.330;7.312;2023-02-26T03:50:16;-1.90;99.90
15483;DHT22;7843;50.330;7.312;2023-02-26T03:52:48;-1.90;99.50
15483;DHT22;7843;50.330;7.312;2023-02-26T03:57:42;-1.80;99.20
15483;DHT22;7843;50.330;7.312;2023-02-26T04:00:10;-1.70;99.20
15483;DHT22;7843;50.330;7.312;2023-02-26T04:02:55;-1.60;99.10
15483;DHT22;7843;50.330;7.312;2023-02-26T04:05:32;-1.50;98.70
15483;DHT22;7843;50.330;7.312;2023-02-26T04:08:01;-1.50;97.90
15483;DHT22;7843;50.330;7.312;2023-02-26T04:10:39;-1.60;98.00
15483;DHT22;7843;50.330;7.312;2023-02-26T04:13:07;-1.60;98.20
15483;DHT22;7843;50.330;7.312;2023-02-26T04:15:34;-1.60;98.30
15483;DHT22;7843;50.330;7.312;2023-02-26T04:18:01;-1.60;97.90
15483;DHT22;7843;50.330;7.312;2023-02-26T04:20:28;-1.60;97.80
15483;DHT22;7843;50.330;7.312;2023-02-26T04:22:55;-1.60;97.90
15483;DHT22;7843;50.330;7.312;2023-02-26T04:25:22;-1.60;97.90
15483;DHT22;7843;50.330;7.312;2023-02-26T04:27:49;-1.60;97.80
15483;DHT22;7843;50.330;7.312;2023-02-26T04:30:16;-1.70;97.80
15483;DHT22;7843;50.330;7.312;2023-02-26T04:32:43;-1.70;97.80
15483;DHT22;7843;50.330;7.312;2023-02-26T04:35:09;-1.80;97.80
15483;DHT22;7843;50.330;7.312;2023-02-26T04:37:36;-1.80;97.90
15483;DHT22;7843;50.330;7.312;2023-02-26T04:40:03;-1.90;98.10
15483;DHT22;7843;50.330;7.312;2023-02-26T04:42:30;-1.90;98.10
15483;DHT22;7843;50.330;7.312;2023-02-26T04:44:57;-2.00;98.20
15483;DHT22;7843;50.330;7.312;2023-02-26T04:47:23;-2.00;98.20
15483;DHT22;7843;50.330;7.312;2023-02-26T04:49:50;-2.00;98.10
15483;DHT22;7843;50.330;7.312;2023-02-26T04:52:16;-2.00;98.10
15483;DHT22;7843;50.330;7.312;2023-02-26T04:54:43;-2.00;98.00
15483;DHT22;7843;50.330;7.312;2023-02-26T04:57:10;-2.00;98.10
15483;DHT22;7843;50.330;7.312;2023-02-26T04:59:36;-2.00;98.20
15483;DHT22;7843;50.330;7.312;2023-02-26T05:02:04;-2.00;98.10
15483;DHT22;7843;50.330;7.312;2023-02-26T05:04:31;-2.00;98.30
15483;DHT22;7843;50.330;7.312;2023-02-26T05:06:58;-2.00;98.10
15483;DHT22;7843;50.330;7.312;2023-02-26T05:09:24;-2.00;98.00
15483;DHT22;7843;50.330;7.312;2023-02-26T05:11:51;-2.00;98.20
15483;DHT22;7843;50.330;7.312;2023-02-26T05:14:18;-2.10;98.10
15483;DHT22;7843;50.330;7.312;2023-02-26T05:16:44;-2.00;98.30
15483;DHT22;7843;50.330;7.312;2023-02-26T05:19:11;-2.00;98.20
15483;DHT22;7843;50.330;7.312;2023-02-26T05:21:38;-2.00;98.20
15483;DHT22;7843;50.330;7.312;2023-02-26T05:24:05;-2.10;98.10
15483;DHT22;7843;50.330;7.312;2023-02-26T05:26:32;-2.20;98.30
15483;DHT22;7843;50.330;7.312;2023-02-26T05:28:58;-2.20;98.50
15483;DHT22;7843;50.330;7.312;2023-02-26T05:31:25;-2.20;98.70
15483;DHT22;7843;50.330;7.312;2023-02-26T05:33:52;-2.20;98.80
15483;DHT22;7843;50.330;7.312;2023-02-26T05:36:19;-2.20;99.00
15483;DHT22;7843;50.330;7.312;2023-02-26T05:38:45;-2.20;99.10
15483;DHT22;7843;50.330;7.312;2023-02-26T05:41:12;-2.20;99.10
15483;DHT22;7843;50.330;7.312;2023-02-26T05:43:39;-2.20;99.30
15483;DHT22;7843;50.330;7.312;2023-02-26T05:46:07;-2.20;99.30
15483;DHT22;7843;50.330;7.312;2023-02-26T05:48:34;-2.20;99.30
15483;DHT22;7843;50.330;7.312;2023-02-26T05:51:00;-2.20;99.20
15483;DHT22;7843;50.330;7.312;2023-02-26T05:53:28;-2.30;99.50
15483;DHT22;7843;50.330;7.312;2023-02-26T05:55:55;-2.30;99.70
15483;DHT22;7843;50.330;7.312;2023-02-26T05:58:21;-2.30;99.80
15483;DHT22;7843;50.330;7.312;2023-02-26T06:00:48;-2.20;99.90
15483;DHT22;7843;50.330;7.312;2023-02-26T06:03:15;-2.20;99.90
15483;DHT22;7843;50.330;7.312;2023-02-26T06:05:42;-2.20;99.90
15483;DHT22;7843;50.330;7.312;2023-02-26T06:08:08;-2.20;99.90
15483;DHT22;7843;50.330;7.312;2023-02-26T06:10:37;-2.30;99.90
15483;DHT22;7843;50.330;7.312;2023-02-26T06:13:04;-2.30;99.90
15483;DHT22;7843;50.330;7.312;2023-02-26T06:15:30;-2.30;99.90
15483;DHT22;7843;50.330;7.312;2023-02-26T06:17:57;-2.40;99.90
15483;DHT22;7843;50.330;7.312;2023-02-26T06:20:24;-2.40;99.90
15483;DHT22;7843;50.330;7.312;2023-02-26T06:22:50;-2.40;99.90
15483;DHT22;7843;50.330;7.312;2023-02-26T06:25:17;-2.40;99.90
15483;DHT22;7843;50.330;7.312;2023-02-26T06:27:44;-2.40;99.90
15483;DHT22;7843;50.330;7.312;2023-02-26T06:30:11;-2.30;99.90
15483;DHT22;7843;50.330;7.312;2023-02-26T06:32:37;-2.30;99.90
15483;DHT22;7843;50.330;7.312;2023-02-26T06:35:05;-2.30;99.90
15483;DHT22;7843;50.330;7.312;2023-02-26T06:37:31;-2.40;99.90
15483;DHT22;7843;50.330;7.312;2023-02-26T06:39:58;-2.40;99.90
15483;DHT22;7843;50.330;7.312;2023-02-26T06:42:25;-2.40;99.90
15483;DHT22;7843;50.330;7.312;2023-02-26T06:44:52;-2.40;99.90
15483;DHT22;7843;50.330;7.312;2023-02-26T06:47:18;-2.40;99.90
15483;DHT22;7843;50.330;7.312;2023-02-26T06:49:45;-2.40;99.90
15483;DHT22;7843;50.330;7.312;2023-02-26T06:52:12;-2.30;99.90
15483;DHT22;7843;50.330;7.312;2023-02-26T06:54:38;-2.20;99.90
15483;DHT22;7843;50.330;7.312;2023-02-26T06:57:05;-2.20;99.90
15483;DHT22;7843;50.330;7.312;2023-02-26T06:59:32;-2.20;99.90
15483;DHT22;7843;50.330;7.312;2023-02-26T07:01:58;-2.10;99.90
15483;DHT22;7843;50.330;7.312;2023-02-26T07:04:25;-2.10;99.90
15483;DHT22;7843;50.330;7.312;2023-02-26T07:06:52;-2.10;99.90
15483;DHT22;7843;50.330;7.312;2023-02-26T07:09:18;-2.00;99.90
15483;DHT22;7843;50.330;7.312;2023-02-26T07:11:45;-2.00;99.90
15483;DHT22;7843;50.330;7.312;2023-02-26T07:14:12;-2.00;99.90
15483;DHT22;7843;50.330;7.312;2023-02-26T07:16:39;-1.90;99.80
15483;DHT22;7843;50.330;7.312;2023-02-26T07:19:05;-1.90;99.60
15483;DHT22;7843;50.330;7.312;2023-02-26T07:21:32;-1.90;99.20
15483;DHT22;7843;50.330;7.312;2023-02-26T07:23:59;-1.90;98.80
15483;DHT22;7843;50.330;7.312;2023-02-26T07:26:25;-1.80;99.10
15483;DHT22;7843;50.330;7.312;2023-02-26T07:28:53;-1.80;98.80
15483;DHT22;7843;50.330;7.312;2023-02-26T07:31:19;-1.70;99.00
15483;DHT22;7843;50.330;7.312;2023-02-26T07:33:46;-1.60;99.30
15483;DHT22;7843;50.330;7.312;2023-02-26T07:36:13;-1.50;99.20
15483;DHT22;7843;50.330;7.312;2023-02-26T07:38:39;-1.40;99.20
15483;DHT22;7843;50.330;7.312;2023-02-26T07:41:06;-1.30;98.70
15483;DHT22;7843;50.330;7.312;2023-02-26T07:43:32;-1.20;98.20
15483;DHT22;7843;50.330;7.312;2023-02-26T07:45:59;-1.10;98.10
15483;DHT22;7843;50.330;7.312;2023-02-26T07:48:26;-1.00;98.10
15483;DHT22;7843;50.330;7.312;2023-02-26T07:50:54;-0.90;98.20
15483;DHT22;7843;50.330;7.312;2023-02-26T07:53:20;-0.80;97.90
15483;DHT22;7843;50.330;7.312;2023-02-26T07:55:47;-0.70;97.30
15483;DHT22;7843;50.330;7.312;2023-02-26T07:58:14;-0.70;96.90
15483;DHT22;7843;50.330;7.312;2023-02-26T08:00:41;-0.70;96.50
15483;DHT22;7843;50.330;7.312;2023-02-26T08:03:07;-0.60;96.70
15483;DHT22;7843;50.330;7.312;2023-02-26T08:05:34;-0.60;97.00
15483;DHT22;7843;50.330;7.312;2023-02-26T08:08:01;-0.60;97.30
15483;DHT22;7843;50.330;7.312;2023-02-26T08:10:29;-0.60;97.40
15483;DHT22;7843;50.330;7.312;2023-02-26T08:12:58;-0.60;97.60
15483;DHT22;7843;50.330;7.312;2023-02-26T08:15:25;-0.60;97.40
15483;DHT22;7843;50.330;7.312;2023-02-26T08:17:52;-0.50;97.20
15483;DHT22;7843;50.330;7.312;2023-02-26T08:20:19;-0.50;96.20
15483;DHT22;7843;50.330;7.312;2023-02-26T08:22:46;-0.50;96.30
15483;DHT22;7843;50.330;7.312;2023-02-26T08:25:13;-0.40;96.10
15483;DHT22;7843;50.330;7.312;2023-02-26T08:27:39;-0.30;95.70
15483;DHT22;7843;50.330;7.312;2023-02-26T08:30:06;-0.20;94.90
15483;DHT22;7843;50.330;7.312;2023-02-26T08:32:33;-0.20;94.00
15483;DHT22;7843;50.330;7.312;2023-02-26T08:35:00;-0.20;92.70
15483;DHT22;7843;50.330;7.312;2023-02-26T08:37:27;-0.20;93.30
15483;DHT22;7843;50.330;7.312;2023-02-26T08:39:54;-0.10;94.40
15483;DHT22;7843;50.330;7.312;2023-02-26T08:42:20;-0.10;94.40
15483;DHT22;7843;50.330;7.312;2023-02-26T08:44:47;0.00;94.20
15483;DHT22;7843;50.330;7.312;2023-02-26T08:47:14;0.10;93.50
15483;DHT22;7843;50.330;7.312;2023-02-26T08:49:50;0.10;93.10
15483;DHT22;7843;50.330;7.312;2023-02-26T08:52:16;0.20;93.00
15483;DHT22;7843;50.330;7.312;2023-02-26T08:54:43;0.20;92.10
15483;DHT22;7843;50.330;7.312;2023-02-26T08:57:10;0.20;92.00
15483;DHT22;7843;50.330;7.312;2023-02-26T08:59:37;0.20;91.90
15483;DHT22;7843;50.330;7.312;2023-02-26T09:02:04;0.30;92.80
15483;DHT22;7843;50.330;7.312;2023-02-26T09:04:30;0.30;91.60
15483;DHT22;7843;50.330;7.312;2023-02-26T09:06:57;0.40;91.10
15483;DHT22;7843;50.330;7.312;2023-02-26T09:09:24;0.40;91.10
15483;DHT22;7843;50.330;7.312;2023-02-26T09:11:50;0.40;92.50
15483;DHT22;7843;50.330;7.312;2023-02-26T09:14:17;0.50;91.90
15483;DHT22;7843;50.330;7.312;2023-02-26T09:16:44;0.60;91.10
15483;DHT22;7843;50.330;7.312;2023-02-26T09:19:11;0.80;91.50
15483;DHT22;7843;50.330;7.312;2023-02-26T09:21:37;0.90;90.60
15483;DHT22;7843;50.330;7.312;2023-02-26T09:24:05;1.10;90.50
15483;DHT22;7843;50.330;7.312;2023-02-26T09:26:31;1.40;90.10
15483;DHT22;7843;50.330;7.312;2023-02-26T09:28:58;1.50;89.40
15483;DHT22;7843;50.330;7.312;2023-02-26T09:31:25;1.50;88.60
15483;DHT22;7843;50.330;7.312;2023-02-26T09:33:53;1.40;87.70
15483;DHT22;7843;50.330;7.312;2023-02-26T09:36:20;1.40;87.90
15483;DHT22;7843;50.330;7.312;2023-02-26T09:38:46;1.40;88.80
15483;DHT22;7843;50.330;7.312;2023-02-26T09:41:22;1.40;88.70
15483;DHT22;7843;50.330;7.312;2023-02-26T09:43:59;1.30;88.40
15483;DHT22;7843;50.330;7.312;2023-02-26T09:46:59;1.30;88.70
15483;DHT22;7843;50.330;7.312;2023-02-26T09:49:41;1.30;88.40
15483;DHT22;7843;50.330;7.312;2023-02-26T09:52:24;1.30;89.00
15483;DHT22;7843;50.330;7.312;2023-02-26T09:54:57;1.30;88.00
15483;DHT22;7843;50.330;7.312;2023-02-26T09:57:34;1.30;88.30
15483;DHT22;7843;50.330;7.312;2023-02-26T10:00:06;1.50;87.30
15483;DHT22;7843;50.330;7.312;2023-02-26T10:02:47;1.60;86.60
15483;DHT22;7843;50.330;7.312;2023-02-26T10:05:58;1.70;87.80
15483;DHT22;7843;50.330;7.312;2023-02-26T10:08:42;1.70;87.50
15483;DHT22;7843;50.330;7.312;2023-02-26T10:11:20;1.70;87.20
15483;DHT22;7843;50.330;7.312;2023-02-26T10:14:04;1.80;87.20
15483;DHT22;7843;50.330;7.312;2023-02-26T10:16:37;1.80;86.60
15483;DHT22;7843;50.330;7.312;2023-02-26T10:19:09;1.80;85.80
15483;DHT22;7843;50.330;7.312;2023-02-26T10:24:38;2.30;86.50
15483;DHT22;7843;50.330;7.312;2023-02-26T10:27:12;2.60;85.10
15483;DHT22;7843;50.330;7.312;2023-02-26T10:29:58;2.70;83.60
15483;DHT22;7843;50.330;7.312;2023-02-26T10:32:35;2.50;83.00
15483;DHT22;7843;50.330;7.312;2023-02-26T10:35:10;2.50;83.50
15483;DHT22;7843;50.330;7.312;2023-02-26T10:37:58;2.60;83.40
15483;DHT22;7843;50.330;7.312;2023-02-26T10:40:50;2.60;82.30
15483;DHT22;7843;50.330;7.312;2023-02-26T10:43:40;2.70;82.70
15483;DHT22;7843;50.330;7.312;2023-02-26T10:46:35;2.80;82.40
15483;DHT22;7843;50.330;7.312;2023-02-26T10:55:18;2.70;81.40
15483;DHT22;7843;50.330;7.312;2023-02-26T10:58:12;2.60;81.40
15483;DHT22;7843;50.330;7.312;2023-02-26T11:00:41;2.50;81.70
15483;DHT22;7843;50.330;7.312;2023-02-26T11:03:15;2.70;82.30
15483;DHT22;7843;50.330;7.312;2023-02-26T11:05:43;2.90;81.00
15483;DHT22;7843;50.330;7.312;2023-02-26T11:08:18;2.90;80.60
15483;DHT22;7843;50.330;7.312;2023-02-26T11:10:55;3.00;81.40
15483;DHT22;7843;50.330;7.312;2023-02-26T11:13:24;2.90;80.90
15483;DHT22;7843;50.330;7.312;2023-02-26T11:15:53;3.00;81.60
15483;DHT22;7843;50.330;7.312;2023-02-26T11:18:39;3.00;80.60
15483;DHT22;7843;50.330;7.312;2023-02-26T11:21:08;3.20;80.60
15483;DHT22;7843;50.330;7.312;2023-02-26T11:23:40;3.40;80.50
15483;DHT22;7843;50.330;7.312;2023-02-26T11:26:15;3.40;80.50
15483;DHT22;7843;50.330;7.312;2023-02-26T11:28:48;3.50;79.70
15483;DHT22;7843;50.330;7.312;2023-02-26T11:31:18;3.40;77.80
15483;DHT22;7843;50.330;7.312;2023-02-26T11:33:51;3.30;78.10
15483;DHT22;7843;50.330;7.312;2023-02-26T11:36:25;3.30;77.30
15483;DHT22;7843;50.330;7.312;2023-02-26T11:38:56;3.30;78.10
15483;DHT22;7843;50.330;7.312;2023-02-26T11:41:24;3.30;78.00
15483;DHT22;7843;50.330;7.312;2023-02-26T11:44:07;3.20;78.60
15483;DHT22;7843;50.330;7.312;2023-02-26T11:46:41;3.30;78.60
15483;DHT22;7843;50.330;7.312;2023-02-26T11:49:16;3.30;78.30
15483;DHT22;7843;50.330;7.312;2023-02-26T11:51:49;3.50;78.30
15483;DHT22;7843;50.330;7.312;2023-02-26T11:54:27;3.70;77.70
15483;DHT22;7843;50.330;7.312;2023-02-26T11:57:02;3.80;77.50
15483;DHT22;7843;50.330;7.312;2023-02-26T11:59:31;4.10;76.20
15483;DHT22;7843;50.330;7.312;2023-02-26T12:02:20;4.20;76.10
15483;DHT22;7843;50.330;7.312;2023-02-26T12:04:50;4.20;76.30
15483;DHT22;7843;50.330;7.312;2023-02-26T12:07:18;4.10;75.20
15483;DHT22;7843;50.330;7.312;2023-02-26T12:09:46;3.90;75.30
15483;DHT22;7843;50.330;7.312;2023-02-26T12:12:17;3.70;77.70
15483;DHT22;7843;50.330;7.312;2023-02-26T12:15:14;3.40;79.00
15483;DHT22;7843;50.330;7.312;2023-02-26T12:17:50;3.20;80.20
15483;DHT22;7843;50.330;7.312;2023-02-26T12:20:28;2.90;80.40
15483;DHT22;7843;50.330;7.312;2023-02-26T12:23:13;2.70;80.00
15483;DHT22;7843;50.330;7.312;2023-02-26T12:26:14;2.70;80.90
15483;DHT22;7843;50.330;7.312;2023-02-26T12:38:04;3.00;80.60
15483;DHT22;7843;50.330;7.312;2023-02-26T12:43:49;3.00;79.00
15483;DHT22;7843;50.330;7.312;2023-02-26T12:54:49;3.20;79.80
15483;DHT22;7843;50.330;7.312;2023-02-26T12:58:35;3.20;80.50
15483;DHT22;7843;50.330;7.312;2023-02-26T13:03:55;3.40;80.30
15483;DHT22;7843;50.330;7.312;2023-02-26T13:06:48;3.30;80.90
15483;DHT22;7843;50.330;7.312;2023-02-26T13:09:41;3.30;79.80
15483;DHT22;7843;50.330;7.312;2023-02-26T13:12:46;3.20;80.30
15483;DHT22;7843;50.330;7.312;2023-02-26T13:15:31;3.20;78.10
15483;DHT22;7843;50.330;7.312;2023-02-26T13:18:19;3.30;78.60
15483;DHT22;7843;50.330;7.312;2023-02-26T13:21:04;4.00;78.90
15483;DHT22;7843;50.330;7.312;2023-02-26T13:23:40;4.40;78.20
15483;DHT22;7843;50.330;7.312;2023-02-26T13:26:10;4.30;76.70
15483;DHT22;7843;50.330;7.312;2023-02-26T13:28:48;4.30;75.80
15483;DHT22;7843;50.330;7.312;2023-02-26T13:31:40;4.50;76.30
15483;DHT22;7843;50.330;7.312;2023-02-26T13:34:16;4.70;74.50
15483;DHT22;7843;50.330;7.312;2023-02-26T13:36:44;4.70;73.60
15483;DHT22;7843;50.330;7.312;2023-02-26T13:39:43;4.60;73.50
15483;DHT22;7843;50.330;7.312;2023-02-26T13:50:59;5.40;72.40
15483;DHT22;7843;50.330;7.312;2023-02-26T13:53:41;6.10;71.80
15483;DHT22;7843;50.330;7.312;2023-02-26T13:58:54;9.10;66.30
15483;DHT22;7843;50.330;7.312;2023-02-26T14:01:34;10.40;63.60
15483;DHT22;7843;50.330;7.312;2023-02-26T14:04:27;10.60;62.20
15483;DHT22;7843;50.330;7.312;2023-02-26T14:07:13;9.80;61.00
15483;DHT22;7843;50.330;7.312;2023-02-26T14:09:59;10.10;61.10
15483;DHT22;7843;50.330;7.312;2023-02-26T14:12:36;11.00;59.60
15483;DHT22;7843;50.330;7.312;2023-02-26T14:17:47;11.40;57.40
15483;DHT22;7843;50.330;7.312;2023-02-26T14:22:47;8.80;59.40
15483;DHT22;7843;50.330;7.312;2023-02-26T14:25:33;7.60;62.80
15483;DHT22;7843;50.330;7.312;2023-02-26T14:30:51;5.90;65.80
15483;DHT22;7843;50.330;7.312;2023-02-26T14:33:28;5.40;67.00
15483;DHT22;7843;50.330;7.312;2023-02-26T14:35:56;5.00;69.00
15483;DHT22;7843;50.330;7.312;2023-02-26T14:38:36;5.60;68.70
15483;DHT22;7843;50.330;7.312;2023-02-26T14:41:27;5.90;68.10
15483;DHT22;7843;50.330;7.312;2023-02-26T14:44:13;6.70;68.60
15483;DHT22;7843;50.330;7.312;2023-02-26T14:46:42;7.20;65.50
15483;DHT22;7843;50.330;7.312;2023-02-26T14:49:30;7.00;65.10
15483;DHT22;7843;50.330;7.312;2023-02-26T14:55:01;5.60;66.20
15483;DHT22;7843;50.330;7.312;2023-02-26T15:00:15;4.20;70.00
15483;DHT22;7843;50.330;7.312;2023-02-26T15:03:02;3.90;69.80
15483;DHT22;7843;50.330;7.312;2023-02-26T15:08:35;3.70;71.40
15483;DHT22;7843;50.330;7.312;2023-02-26T15:11:11;3.70;71.30
15483;DHT22;7843;50.330;7.312;2023-02-26T15:19:50;4.80;70.30
15483;DHT22;7843;50.330;7.312;2023-02-26T15:22:30;4.70;70.50
15483;DHT22;7843;50.330;7.312;2023-02-26T15:24:58;4.50;71.50
15483;DHT22;7843;50.330;7.312;2023-02-26T15:27:29;4.20;70.50
15483;DHT22;7843;50.330;7.312;2023-02-26T15:29:56;4.00;71.90
15483;DHT22;7843;50.330;7.312;2023-02-26T15:32:27;3.90;72.00
15483;DHT22;7843;50.330;7.312;2023-02-26T15:35:15;3.80;72.40
15483;DHT22;7843;50.330;7.312;2023-02-26T15:37:45;3.60;73.20
15483;DHT22;7843;50.330;7.312;2023-02-26T15:40:13;3.60;73.40
15483;DHT22;7843;50.330;7.312;2023-02-26T15:42:42;3.50;73.50
15483;DHT22;7843;50.330;7.312;2023-02-26T15:45:17;3.50;74.40
15483;DHT22;7843;50.330;7.312;2023-02-26T15:47:50;3.50;75.40
15483;DHT22;7843;50.330;7.312;2023-02-26T15:50:18;3.40;74.90
15483;DHT22;7843;50.330;7.312;2023-02-26T15:52:49;3.20;73.90
15483;DHT22;7843;50.330;7.312;2023-02-26T15:55:18;3.00;74.40
15483;DHT22;7843;50.330;7.312;2023-02-26T15:57:46;2.90;74.40
15483;DHT22;7843;50.330;7.312;2023-02-26T16:00:18;2.90;75.30
15483;DHT22;7843;50.330;7.312;2023-02-26T16:02:55;3.00;76.00
15483;DHT22;7843;50.330;7.312;2023-02-26T16:05:25;3.00;75.30
15483;DHT22;7843;50.330;7.312;2023-02-26T16:07:52;3.00;75.10
15483;DHT22;7843;50.330;7.312;2023-02-26T16:10:39;2.90;74.50
15483;DHT22;7843;50.330;7.312;2023-02-26T16:13:13;2.90;75.70
15483;DHT22;7843;50.330;7.312;2023-02-26T16:15:41;2.80;76.30
15483;DHT22;7843;50.330;7.312;2023-02-26T16:18:13;2.70;76.70
15483;DHT22;7843;50.330;7.312;2023-02-26T16:20:44;2.50;77.60
15483;DHT22;7843;50.330;7.312;2023-02-26T16:23:16;2.40;78.70
15483;DHT22;7843;50.330;7.312;2023-02-26T16:25:54;2.20;79.60
15483;DHT22;7843;50.330;7.312;2023-02-26T16:28:26;2.20;80.10
15483;DHT22;7843;50.330;7.312;2023-02-26T16:30:55;2.00;80.50
15483;DHT22;7843;50.330;7.312;2023-02-26T16:33:24;2.00;81.00
15483;DHT22;7843;50.330;7.312;2023-02-26T16:36:02;2.00;81.00
15483;DHT22;7843;50.330;7.312;2023-02-26T16:38:48;2.00;81.00
15483;DHT22;7843;50.330;7.312;2023-02-26T16:41:19;1.80;81.40
15483;DHT22;7843;50.330;7.312;2023-02-26T16:43:53;1.70;81.00
15483;DHT22;7843;50.330;7.312;2023-02-26T16:46:29;1.60;81.30
15483;DHT22;7843;50.330;7.312;2023-02-26T16:51:38;1.60;81.40
15483;DHT22;7843;50.330;7.312;2023-02-26T16:54:21;1.50;81.50
15483;DHT22;7843;50.330;7.312;2023-02-26T16:56:59;1.40;81.50
15483;DHT22;7843;50.330;7.312;2023-02-26T16:59:39;1.40;81.90
15483;DHT22;7843;50.330;7.312;2023-02-26T17:02:14;1.30;81.80
15483;DHT22;7843;50.330;7.312;2023-02-26T17:04:52;1.30;82.20
15483;DHT22;7843;50.330;7.312;2023-02-26T17:07:33;1.30;82.40
15483;DHT22;7843;50.330;7.312;2023-02-26T17:10:18;1.20;83.00
15483;DHT22;7843;50.330;7.312;2023-02-26T17:12:50;1.20;83.20
15483;DHT22;7843;50.330;7.312;2023-02-26T17:15:20;1.10;83.60
15483;DHT22;7843;50.330;7.312;2023-02-26T17:17:51;1.00;83.90
15483;DHT22;7843;50.330;7.312;2023-02-26T17:20:23;0.90;84.30
15483;DHT22;7843;50.330;7.312;2023-02-26T17:22:50;0.80;84.60
15483;DHT22;7843;50.330;7.312;2023-02-26T17:25:18;0.80;84.70
15483;DHT22;7843;50.330;7.312;2023-02-26T17:27:47;0.70;84.60
15483;DHT22;7843;50.330;7.312;2023-02-26T17:30:18;0.70;85.00
15483;DHT22;7843;50.330;7.312;2023-02-26T17:32:45;0.70;85.10
15483;DHT22;7843;50.330;7.312;2023-02-26T17:35:17;0.70;85.00
15483;DHT22;7843;50.330;7.312;2023-02-26T17:37:44;0.70;85.20
15483;DHT22;7843;50.330;7.312;2023-02-26T17:40:24;0.70;85.10
15483;DHT22;7843;50.330;7.312;2023-02-26T17:42:51;0.80;85.60
15483;DHT22;7843;50.330;7.312;2023-02-26T17:45:19;0.80;85.60
15483;DHT22;7843;50.330;7.312;2023-02-26T17:47:46;0.80;85.70
15483;DHT22;7843;50.330;7.312;2023-02-26T17:50:40;0.80;86.00
15483;DHT22;7843;50.330;7.312;2023-02-26T17:53:09;0.80;85.60
15483;DHT22;7843;50.330;7.312;2023-02-26T17:55:36;0.70;85.10
15483;DHT22;7843;50.330;7.312;2023-02-26T17:58:06;0.70;85.40
15483;DHT22;7843;50.330;7.312;2023-02-26T18:00:33;0.60;85.00
15483;DHT22;7843;50.330;7.312;2023-02-26T18:03:05;0.50;85.00
15483;DHT22;7843;50.330;7.312;2023-02-26T18:05:32;0.50;85.50
15483;DHT22;7843;50.330;7.312;2023-02-26T18:08:05;0.40;85.10
15483;DHT22;7843;50.330;7.312;2023-02-26T18:10:32;0.40;84.90
15483;DHT22;7843;50.330;7.312;2023-02-26T18:12:59;0.30;84.60